Weather at Dwight Airport

Public forecast

Using degrees Fahrenheit for public forecast. Weather courtesy of forecast.io.

Closest aviation weather report (METAR) to Dwight Airport

Closest report is Pontiac Municipal Airport, 15.1 nm (27.9 km) SSW. Retrieved 2022/08/18 03:55 UTC (14 minutes ago):

KPNT 180355Z AUTO 00000KT 10SM CLR 16/16 A3010 RMK AO2 T01600160

Closest aviation forecast (TAF) to Dwight Airport

Closest forecast is Central Illinois Regional Airport at Bloomington-Normal, 44.9 nm (83.2 km) SSW. Retrieved 2022-08-18 00:22 UTC (4 hours ago):

TAF KBMI 172320Z 1800/1824 04006KT P6SM VCSH SCT050 BKN100 FM180300 VRB03KT P6SM FEW050